createdAt,value
2017-05-24T00:00:40.630Z,1016.24
2017-05-24T00:01:42.377Z,1016.27
2017-05-24T00:02:44.110Z,1016.28
2017-05-24T00:03:48.371Z,1016.30
2017-05-24T00:04:50.094Z,1016.28
2017-05-24T00:05:51.791Z,1016.30
2017-05-24T00:06:53.510Z,1016.29
2017-05-24T00:07:55.255Z,1016.28
2017-05-24T00:08:56.973Z,1016.27
2017-05-24T00:09:58.612Z,1016.27
2017-05-24T00:11:00.291Z,1016.23
2017-05-24T00:12:01.959Z,1016.28
2017-05-24T00:13:03.615Z,1016.25
2017-05-24T00:14:05.415Z,1016.25
2017-05-24T00:15:07.088Z,1016.27
2017-05-24T00:16:08.731Z,1016.26
2017-05-24T00:17:10.421Z,1016.31
2017-05-24T00:18:12.115Z,1016.32
2017-05-24T00:19:53.341Z,1016.07
2017-05-24T00:21:34.447Z,1015.99
2017-05-24T00:22:36.145Z,1016.17
2017-05-24T00:23:37.777Z,1016.23
2017-05-24T00:24:39.389Z,1016.24
2017-05-24T00:25:41.042Z,1016.23
2017-05-24T00:26:42.774Z,1016.32
2017-05-24T00:27:44.453Z,1016.29
2017-05-24T00:28:46.153Z,1016.29
2017-05-24T00:29:47.812Z,1016.30
2017-05-24T00:30:49.509Z,1016.21
2017-05-24T00:31:51.193Z,1016.24
2017-05-24T00:32:52.838Z,1016.23
2017-05-24T00:33:54.520Z,1016.26
2017-05-24T00:34:56.162Z,1016.21
2017-05-24T00:36:37.328Z,1016.03
2017-05-24T00:38:18.481Z,1015.92
2017-05-24T00:39:20.097Z,1016.09
2017-05-24T00:40:21.766Z,1016.25
2017-05-24T00:41:23.496Z,1016.27
2017-05-24T00:42:25.184Z,1016.29
2017-05-24T00:43:26.849Z,1016.29
2017-05-24T00:44:28.498Z,1016.33
2017-05-24T00:45:30.193Z,1016.30
2017-05-24T00:46:32.472Z,1016.26
2017-05-24T00:47:34.204Z,1016.27
2017-05-24T00:48:35.870Z,1016.22
2017-05-24T00:49:37.528Z,1016.20
2017-05-24T00:50:39.259Z,1016.22
2017-05-24T00:51:40.931Z,1016.17
2017-05-24T00:52:42.630Z,1016.21
2017-05-24T00:53:44.319Z,1016.17
2017-05-24T00:54:45.977Z,1016.16
2017-05-24T00:55:47.716Z,1016.21
2017-05-24T00:56:49.395Z,1016.17
2017-05-24T00:57:51.080Z,1016.17
2017-05-24T00:58:52.767Z,1016.16
2017-05-24T00:59:54.458Z,1016.23
2017-05-24T01:00:56.135Z,1016.22
2017-05-24T01:01:57.758Z,1016.21
2017-05-24T01:02:59.395Z,1016.25
2017-05-24T01:04:01.011Z,1016.21
2017-05-24T01:05:02.685Z,1016.27
2017-05-24T01:06:04.370Z,1016.25
2017-05-24T01:07:06.057Z,1016.25
2017-05-24T01:08:07.709Z,1016.23
2017-05-24T01:09:09.443Z,1016.19
2017-05-24T01:10:11.105Z,1016.21
2017-05-24T01:11:12.807Z,1016.18
2017-05-24T01:12:14.520Z,1016.19
2017-05-24T01:13:16.289Z,1016.21
2017-05-24T01:14:18.032Z,1016.18
2017-05-24T01:15:19.739Z,1016.22
2017-05-24T01:16:21.544Z,1016.22
2017-05-24T01:17:23.322Z,1016.25
2017-05-24T01:18:25.053Z,1016.25
2017-05-24T01:19:26.778Z,1016.31
2017-05-24T01:20:28.475Z,1016.28
2017-05-24T01:21:30.219Z,1016.30
2017-05-24T01:22:31.904Z,1016.26
2017-05-24T01:23:33.624Z,1016.29
2017-05-24T01:24:35.798Z,1016.27
2017-05-24T01:25:37.564Z,1016.22
2017-05-24T01:26:39.297Z,1016.23
2017-05-24T01:27:41.057Z,1016.27
2017-05-24T01:28:42.807Z,1016.24
2017-05-24T01:30:24.071Z,1015.94
2017-05-24T01:31:25.762Z,1016.15
2017-05-24T01:32:27.471Z,1016.26
2017-05-24T01:33:29.207Z,1016.28
2017-05-24T01:34:30.853Z,1016.28
2017-05-24T01:35:32.520Z,1016.31
2017-05-24T01:36:34.219Z,1016.28
2017-05-24T01:37:36.025Z,1016.30
2017-05-24T01:38:37.742Z,1016.30
2017-05-24T01:39:39.486Z,1016.30
2017-05-24T01:40:41.199Z,1016.31
2017-05-24T01:41:42.858Z,1016.31
2017-05-24T01:42:44.624Z,1016.31
2017-05-24T01:43:46.347Z,1016.29
2017-05-24T01:44:47.985Z,1016.30
2017-05-24T01:45:49.641Z,1016.29
2017-05-24T01:46:51.275Z,1016.28
2017-05-24T01:47:52.998Z,1016.27
2017-05-24T01:48:54.667Z,1016.27
2017-05-24T01:49:56.312Z,1016.23
2017-05-24T01:50:57.947Z,1016.23
2017-05-24T01:51:59.645Z,1016.25
2017-05-24T01:53:01.387Z,1016.24
2017-05-24T01:54:03.104Z,1016.23
2017-05-24T01:55:04.827Z,1016.24
2017-05-24T01:56:06.531Z,1016.27
2017-05-24T01:57:08.244Z,1016.28
2017-05-24T01:58:10.054Z,1016.30
2017-05-24T01:59:11.765Z,1016.32
2017-05-24T02:00:13.419Z,1016.29
2017-05-24T02:01:15.077Z,1016.34
2017-05-24T02:02:16.780Z,1016.32
2017-05-24T02:03:18.465Z,1016.37
2017-05-24T02:04:20.165Z,1016.34
2017-05-24T02:05:21.910Z,1016.32
2017-05-24T02:06:23.568Z,1016.28
2017-05-24T02:07:25.261Z,1016.30
2017-05-24T02:08:26.897Z,1016.30
2017-05-24T02:09:28.551Z,1016.32
2017-05-24T02:10:30.293Z,1016.33
2017-05-24T02:11:31.966Z,1016.31
2017-05-24T02:12:33.680Z,1016.35
2017-05-24T02:13:35.320Z,1016.29
2017-05-24T02:14:37.041Z,1016.31
2017-05-24T02:15:38.770Z,1016.35
2017-05-24T02:16:40.402Z,1016.34
2017-05-24T02:17:42.109Z,1016.35
2017-05-24T02:18:43.842Z,1016.34
2017-05-24T02:19:45.517Z,1016.35
2017-05-24T02:20:47.138Z,1016.33
2017-05-24T02:22:28.291Z,1016.17
2017-05-24T02:24:10.414Z,1015.97
2017-05-24T02:25:12.116Z,1016.13
2017-05-24T02:26:13.766Z,1016.16
2017-05-24T02:27:15.377Z,1016.17
2017-05-24T02:28:17.019Z,1016.20
2017-05-24T02:29:18.659Z,1016.17
2017-05-24T02:30:20.423Z,1016.20
2017-05-24T02:31:22.076Z,1016.18
2017-05-24T02:32:23.783Z,1016.17
2017-05-24T02:33:25.446Z,1016.22
2017-05-24T02:34:27.112Z,1016.18
2017-05-24T02:35:28.808Z,1016.21
2017-05-24T02:36:30.439Z,1016.17
2017-05-24T02:37:32.091Z,1016.13
2017-05-24T02:38:33.745Z,1016.19
2017-05-24T02:39:35.351Z,1016.20
2017-05-24T02:40:37.057Z,1016.19
2017-05-24T02:41:38.710Z,1016.16
2017-05-24T02:42:40.346Z,1016.16
2017-05-24T02:43:41.996Z,1016.14
2017-05-24T02:44:43.655Z,1016.17
2017-05-24T02:45:45.340Z,1016.16
2017-05-24T02:46:47.038Z,1016.17
2017-05-24T02:47:48.720Z,1016.20
2017-05-24T02:48:50.356Z,1016.17
2017-05-24T02:49:52.051Z,1016.19
2017-05-24T02:50:53.773Z,1016.23
2017-05-24T02:51:55.512Z,1016.26
2017-05-24T02:52:57.189Z,1016.25
2017-05-24T02:53:58.873Z,1016.23
2017-05-24T02:55:00.571Z,1016.22
2017-05-24T02:56:02.312Z,1016.21
2017-05-24T02:57:03.947Z,1016.23
2017-05-24T02:58:05.645Z,1016.26
2017-05-24T02:59:07.305Z,1016.27
2017-05-24T03:00:08.976Z,1016.28
2017-05-24T03:01:10.729Z,1016.32
2017-05-24T03:02:12.430Z,1016.36
2017-05-24T03:03:14.177Z,1016.34
2017-05-24T03:04:15.861Z,1016.33
2017-05-24T03:05:17.503Z,1016.32
2017-05-24T03:06:19.174Z,1016.33
2017-05-24T03:07:20.900Z,1016.33
2017-05-24T03:08:22.587Z,1016.32
2017-05-24T03:09:24.321Z,1016.32
2017-05-24T03:10:26.057Z,1016.37
2017-05-24T03:11:27.782Z,1016.36
2017-05-24T03:12:29.441Z,1016.38
2017-05-24T03:13:31.125Z,1016.36
2017-05-24T03:15:12.338Z,1016.22
2017-05-24T03:16:53.541Z,1016.06
2017-05-24T03:17:55.242Z,1016.25
2017-05-24T03:18:56.932Z,1016.29
2017-05-24T03:19:58.602Z,1016.36
2017-05-24T03:21:00.412Z,1016.38
2017-05-24T03:22:02.140Z,1016.39
2017-05-24T03:23:03.789Z,1016.38
2017-05-24T03:24:05.424Z,1016.36
2017-05-24T03:25:07.188Z,1016.37
2017-05-24T03:26:08.874Z,1016.40
2017-05-24T03:27:10.693Z,1016.38
2017-05-24T03:28:12.441Z,1016.41
2017-05-24T03:29:14.140Z,1016.40
2017-05-24T03:30:15.925Z,1016.42
2017-05-24T03:31:17.663Z,1016.47
2017-05-24T03:32:19.433Z,1016.46
2017-05-24T03:33:21.174Z,1016.45
2017-05-24T03:34:22.940Z,1016.46
2017-05-24T03:35:24.661Z,1016.41
2017-05-24T03:36:26.353Z,1016.40
2017-05-24T03:37:28.144Z,1016.39
2017-05-24T03:38:29.871Z,1016.41
2017-05-24T03:39:31.587Z,1016.43
2017-05-24T03:40:33.305Z,1016.43
2017-05-24T03:41:34.992Z,1016.47
2017-05-24T03:42:36.727Z,1016.41
2017-05-24T03:43:38.419Z,1016.46
2017-05-24T03:44:40.121Z,1016.46
2017-05-24T03:45:41.854Z,1016.48
2017-05-24T03:46:43.530Z,1016.51
2017-05-24T03:47:45.231Z,1016.48
2017-05-24T03:48:46.907Z,1016.46
2017-05-24T03:49:48.597Z,1016.47
2017-05-24T03:50:50.345Z,1016.48
2017-05-24T03:51:52.148Z,1016.44
2017-05-24T03:52:53.871Z,1016.44
2017-05-24T03:53:55.560Z,1016.43
2017-05-24T03:54:57.195Z,1016.44
2017-05-24T03:55:58.871Z,1016.43
2017-05-24T03:57:45.175Z,1016.19
2017-05-24T03:58:46.829Z,1016.37
2017-05-24T03:59:48.514Z,1016.49
2017-05-24T04:00:50.207Z,1016.56
2017-05-24T04:01:51.882Z,1016.58
2017-05-24T04:02:53.595Z,1016.54
2017-05-24T04:03:55.287Z,1016.52
2017-05-24T04:04:56.984Z,1016.54
2017-05-24T04:05:58.710Z,1016.57
2017-05-24T04:07:39.920Z,1016.34
2017-05-24T04:09:21.160Z,1016.21
2017-05-24T04:10:22.856Z,1016.42
2017-05-24T04:11:24.554Z,1016.49
2017-05-24T04:12:26.236Z,1016.57
2017-05-24T04:13:27.907Z,1016.60
2017-05-24T04:14:29.667Z,1016.58
2017-05-24T04:15:31.337Z,1016.62
2017-05-24T04:16:32.996Z,1016.65
2017-05-24T04:17:34.683Z,1016.66
2017-05-24T04:18:36.414Z,1016.66
2017-05-24T04:19:38.160Z,1016.69
2017-05-24T04:20:39.872Z,1016.70
2017-05-24T04:21:41.533Z,1016.70
2017-05-24T04:22:43.319Z,1016.74
2017-05-24T04:23:45.028Z,1016.78
2017-05-24T04:24:46.762Z,1016.80
2017-05-24T04:25:48.479Z,1016.77
2017-05-24T04:26:50.205Z,1016.80
2017-05-24T04:27:51.931Z,1016.81
2017-05-24T04:28:53.698Z,1016.82
2017-05-24T04:29:55.495Z,1016.80
2017-05-24T04:30:57.157Z,1016.82
2017-05-24T04:31:58.796Z,1016.81
2017-05-24T04:33:00.496Z,1016.82
2017-05-24T04:34:02.162Z,1016.81
2017-05-24T04:35:03.876Z,1016.78
2017-05-24T04:36:05.561Z,1016.82
2017-05-24T04:37:07.262Z,1016.88
2017-05-24T04:38:08.975Z,1016.91
2017-05-24T04:39:10.672Z,1016.91
2017-05-24T04:40:12.349Z,1016.94
2017-05-24T04:41:14.075Z,1016.93
2017-05-24T04:42:15.921Z,1016.91
2017-05-24T04:43:17.679Z,1016.90
2017-05-24T04:44:19.340Z,1016.87
2017-05-24T04:45:21.052Z,1016.82
2017-05-24T04:46:22.705Z,1016.83
2017-05-24T04:47:24.350Z,1016.82
2017-05-24T04:48:26.100Z,1016.86
2017-05-24T04:49:27.799Z,1016.88
2017-05-24T04:50:29.438Z,1016.93
2017-05-24T04:51:31.133Z,1016.92
2017-05-24T04:52:32.882Z,1016.94
2017-05-24T04:53:34.599Z,1016.92
2017-05-24T04:54:36.281Z,1016.95
2017-05-24T04:55:38.045Z,1016.98
2017-05-24T04:56:39.711Z,1017.04
2017-05-24T04:57:41.432Z,1017.04
2017-05-24T04:58:43.133Z,1017.07
2017-05-24T05:00:24.415Z,1017.07
2017-05-24T05:01:26.186Z,1017.25
2017-05-24T05:02:28.003Z,1017.42
2017-05-24T05:03:29.631Z,1017.52
2017-05-24T05:04:31.428Z,1017.63
2017-05-24T05:05:33.269Z,1017.54
2017-05-24T05:06:35.044Z,1017.47
2017-05-24T05:07:36.880Z,1017.34
2017-05-24T05:08:38.555Z,1017.28
2017-05-24T05:09:40.227Z,1017.19
2017-05-24T05:10:41.908Z,1017.12
2017-05-24T05:11:43.557Z,1017.13
2017-05-24T05:12:45.238Z,1017.13
2017-05-24T05:13:46.898Z,1017.14
2017-05-24T05:14:48.560Z,1017.17
2017-05-24T05:15:50.247Z,1017.19
2017-05-24T05:16:51.907Z,1017.21
2017-05-24T05:17:53.630Z,1017.22
2017-05-24T05:18:55.333Z,1017.19
2017-05-24T05:19:57.006Z,1017.15
2017-05-24T05:20:58.747Z,1017.16
2017-05-24T05:22:00.419Z,1017.14
2017-05-24T05:23:02.088Z,1017.15
2017-05-24T05:24:03.765Z,1017.12
2017-05-24T05:25:05.432Z,1017.10
2017-05-24T05:26:07.215Z,1017.15
2017-05-24T05:27:10.958Z,1017.33
2017-05-24T05:28:18.658Z,1017.70
